Tweed New Haven Airport New Haven US
ICAO: KHVN
IATA: HVN
Category: Medium
Scheduled Services: Yes

Elevation: 12 ft
TransAlt. 18000 ft.

Airport Communications:
NEW YORK APP/DEP:124.075
ATIS:133.65
CTAF:124.8
GND:121.7
BRIDGEPORT RDO:109.8
NEW HAVEN TWR:124.8
UNICOM:122.95

KHVN Zoom In..

Runways:

(A) RW 02 length 5600 ft width 150 ft
ILS 109.10 / hdg 16

(B) RW 14 length 3626 ft width 100 ft
---- / hdg 144

(C) RW 20 length 5600 ft width 150 ft
---- / hdg 196

(D) RW 32 length 3626 ft width 100 ft
---- / hdg 324

Location; KHVN
Day. 25 / Time. 10.14 Zulu
* Altimeter: 30.03
* Temperature: 12° c. 53.6°f.
* Wind from: 090° Speed 09 kn.
Dewpoint: 10° c.
Visibility: 7 Statute Miles.
Clouds: Broken 700 ft.
Clouds: Broken 2000 ft.
Clouds: Overcast 3100 ft.

KHVN 251014Z 09009KT 7SM BKN007 BKN020 OVC031 12/10 A3003 RMK AO2 CIG 005V009 T01170100


Wind From 090°
Speed 09 kn.

  YouTube Music Video
 
jpsmedia.com for Web Design  worldairports.se 2018   terms of use